createdAt,value
2022-08-26T00:01:53.844Z,60.66
2022-08-26T00:04:22.326Z,59.97
2022-08-26T00:06:49.463Z,58.41
2022-08-26T00:09:16.868Z,60.08
2022-08-26T00:11:46.328Z,60.69
2022-08-26T00:14:15.249Z,60.81
2022-08-26T00:16:48.005Z,60.31
2022-08-26T00:19:20.668Z,60.00
2022-08-26T00:21:50.107Z,60.35
2022-08-26T00:24:19.408Z,59.77
2022-08-26T00:26:47.027Z,58.81
2022-08-26T00:29:14.215Z,57.86
2022-08-26T00:31:42.673Z,58.61
2022-08-26T00:34:12.526Z,58.27
2022-08-26T00:36:41.099Z,59.34
2022-08-26T00:39:08.695Z,58.17
2022-08-26T00:41:39.198Z,57.96
2022-08-26T00:44:07.165Z,57.66
2022-08-26T00:46:37.314Z,60.54
2022-08-26T00:49:16.058Z,59.67
2022-08-26T00:51:49.514Z,59.45
2022-08-26T00:54:19.535Z,59.94
2022-08-26T00:56:57.826Z,59.80
2022-08-26T00:59:30.188Z,59.03
2022-08-26T01:02:02.860Z,59.61
2022-08-26T01:04:33.640Z,58.48
2022-08-26T01:07:01.531Z,59.17
2022-08-26T01:09:28.659Z,58.57
2022-08-26T01:11:59.200Z,59.40
2022-08-26T01:14:30.117Z,59.24
2022-08-26T01:16:57.185Z,60.84
2022-08-26T01:19:30.106Z,60.79
2022-08-26T01:22:00.551Z,61.38
2022-08-26T01:24:29.671Z,61.20
2022-08-26T01:27:05.278Z,60.18
2022-08-26T01:29:35.309Z,60.13
2022-08-26T01:32:05.004Z,60.54
2022-08-26T01:34:36.214Z,58.25
2022-08-26T01:37:23.667Z,58.96
2022-08-26T01:39:53.670Z,58.23
2022-08-26T01:42:23.909Z,57.50
2022-08-26T01:45:07.390Z,57.65
2022-08-26T01:47:36.721Z,56.95
2022-08-26T01:50:10.950Z,57.66
2022-08-26T01:52:41.800Z,57.03
2022-08-26T01:55:11.511Z,57.48
2022-08-26T01:57:38.662Z,57.17
2022-08-26T02:00:08.874Z,57.56
2022-08-26T02:02:43.916Z,55.91
2022-08-26T02:05:17.026Z,54.65
2022-08-26T02:07:45.279Z,55.08
2022-08-26T02:10:15.065Z,55.17
2022-08-26T02:12:42.770Z,55.29
2022-08-26T02:15:12.534Z,54.59
2022-08-26T02:17:45.796Z,55.98
2022-08-26T02:20:17.719Z,55.21
2022-08-26T02:22:45.570Z,54.91
2022-08-26T02:25:18.249Z,55.69
2022-08-26T02:27:47.230Z,56.26
2022-08-26T02:30:24.574Z,55.93
2022-08-26T02:32:53.318Z,55.68
2022-08-26T02:35:22.945Z,54.95
2022-08-26T02:37:52.087Z,55.58
2022-08-26T02:40:31.803Z,54.86
2022-08-26T02:42:59.002Z,54.19
2022-08-26T02:45:28.661Z,55.36
2022-08-26T02:47:58.303Z,56.32
2022-08-26T02:50:27.172Z,55.39
2022-08-26T02:52:54.189Z,55.43
2022-08-26T02:55:21.268Z,54.10
2022-08-26T02:57:52.499Z,55.59
2022-08-26T03:00:19.624Z,55.27
2022-08-26T03:02:46.621Z,54.55
2022-08-26T03:05:13.757Z,54.74
2022-08-26T03:07:42.891Z,54.22
2022-08-26T03:10:12.719Z,53.39
2022-08-26T03:12:39.993Z,53.35
2022-08-26T03:15:17.687Z,52.21
2022-08-26T03:17:46.986Z,52.45
2022-08-26T03:20:15.549Z,54.03
2022-08-26T03:22:45.086Z,53.74
2022-08-26T03:25:14.860Z,52.76
2022-08-26T03:27:43.096Z,52.39
2022-08-26T03:30:30.354Z,51.46
2022-08-26T03:32:57.547Z,51.67
2022-08-26T03:35:25.919Z,51.03
2022-08-26T03:37:53.977Z,50.74
2022-08-26T03:40:21.763Z,52.98
2022-08-26T03:42:49.841Z,52.83
2022-08-26T03:45:18.412Z,52.16
2022-08-26T03:47:47.629Z,52.12
2022-08-26T03:50:23.030Z,50.06
2022-08-26T03:52:52.857Z,49.32
2022-08-26T03:55:21.142Z,49.08
2022-08-26T03:57:51.624Z,48.73
2022-08-26T04:00:19.370Z,47.97
2022-08-26T04:02:51.265Z,47.30
2022-08-26T04:05:22.832Z,47.53
2022-08-26T04:07:50.523Z,46.18
2022-08-26T04:10:28.966Z,46.65
2022-08-26T04:12:58.930Z,46.81
2022-08-26T04:15:32.888Z,45.97
2022-08-26T04:18:00.839Z,44.17
2022-08-26T04:20:28.634Z,45.07
2022-08-26T04:22:55.574Z,45.82
2022-08-26T04:25:22.752Z,43.39
2022-08-26T04:27:51.279Z,42.58
2022-08-26T04:30:18.517Z,42.64
2022-08-26T04:32:45.763Z,42.48
2022-08-26T04:35:12.671Z,41.92
2022-08-26T04:37:39.629Z,42.00
2022-08-26T04:40:11.352Z,42.47
2022-08-26T04:42:38.348Z,41.65
2022-08-26T04:45:10.040Z,41.42
2022-08-26T04:47:38.041Z,40.68
2022-08-26T04:50:07.478Z,41.14
2022-08-26T04:52:36.357Z,41.93
2022-08-26T04:55:06.572Z,41.38
2022-08-26T04:57:35.372Z,40.78
2022-08-26T05:00:07.917Z,40.30
2022-08-26T05:02:34.855Z,40.49
2022-08-26T05:05:02.223Z,40.56
2022-08-26T05:07:29.229Z,40.32
2022-08-26T05:09:58.892Z,41.38
2022-08-26T05:12:25.864Z,42.30
2022-08-26T05:14:53.508Z,42.65
2022-08-26T05:17:20.787Z,43.12
2022-08-26T05:19:48.145Z,42.52
2022-08-26T05:22:17.515Z,43.06
2022-08-26T05:24:46.546Z,43.45
2022-08-26T05:27:14.330Z,43.93
2022-08-26T05:29:41.536Z,42.96
2022-08-26T05:32:08.466Z,41.69
2022-08-26T05:34:38.376Z,41.77
2022-08-26T05:37:06.420Z,40.32
2022-08-26T05:39:33.879Z,40.55
2022-08-26T05:42:01.368Z,39.00
2022-08-26T05:44:29.182Z,37.15
2022-08-26T05:47:16.051Z,36.02
2022-08-26T05:49:51.457Z,36.91
2022-08-26T05:52:19.147Z,36.89
2022-08-26T05:54:46.037Z,36.20
2022-08-26T05:57:14.708Z,35.22
2022-08-26T05:59:41.719Z,34.92
2022-08-26T06:02:08.885Z,34.65
2022-08-26T06:04:35.802Z,33.72
2022-08-26T06:07:03.574Z,32.93
2022-08-26T06:09:33.083Z,33.70
2022-08-26T06:12:01.952Z,34.52
2022-08-26T06:14:29.072Z,34.59
2022-08-26T06:16:56.624Z,35.09
2022-08-26T06:19:23.832Z,33.92
2022-08-26T06:21:54.729Z,33.14
2022-08-26T06:24:40.759Z,33.02
2022-08-26T06:27:11.449Z,32.69
2022-08-26T06:29:39.733Z,32.03
2022-08-26T06:32:06.981Z,31.35
2022-08-26T06:34:36.219Z,30.98
2022-08-26T06:37:03.777Z,29.66
2022-08-26T06:39:31.838Z,28.70
2022-08-26T06:42:00.295Z,28.22
2022-08-26T06:44:27.855Z,28.74
2022-08-26T06:46:55.111Z,29.45
2022-08-26T06:49:26.616Z,29.31
2022-08-26T06:51:58.691Z,27.97
2022-08-26T06:54:26.875Z,28.72
2022-08-26T06:56:56.003Z,29.11
2022-08-26T06:59:23.409Z,28.35
2022-08-26T07:01:50.455Z,29.67
2022-08-26T07:04:21.798Z,29.06
2022-08-26T07:06:52.723Z,29.51
2022-08-26T07:09:23.413Z,28.67
2022-08-26T07:11:51.527Z,31.24
2022-08-26T07:14:21.411Z,28.33
2022-08-26T07:16:52.467Z,28.31
2022-08-26T07:19:31.129Z,29.58
2022-08-26T07:22:04.152Z,31.00
2022-08-26T07:24:33.175Z,32.98
2022-08-26T07:27:05.484Z,33.58
2022-08-26T07:29:34.166Z,33.88
2022-08-26T07:32:01.445Z,33.94
2022-08-26T07:34:29.185Z,34.06
2022-08-26T07:36:57.164Z,34.92
2022-08-26T07:39:26.865Z,35.65
2022-08-26T07:41:54.485Z,35.81
2022-08-26T07:44:21.653Z,36.77
2022-08-26T07:46:53.033Z,36.58
2022-08-26T07:49:24.655Z,36.24
2022-08-26T07:51:53.463Z,35.25
2022-08-26T07:54:21.014Z,34.82
2022-08-26T07:56:54.749Z,34.95
2022-08-26T07:59:23.492Z,36.80
2022-08-26T08:01:50.637Z,36.09
2022-08-26T08:04:21.890Z,36.52
2022-08-26T08:06:53.987Z,35.97
2022-08-26T08:09:22.306Z,34.64
2022-08-26T08:11:50.030Z,34.23
2022-08-26T08:14:18.798Z,33.39
2022-08-26T08:16:51.247Z,34.15
2022-08-26T08:19:23.958Z,34.62
2022-08-26T08:22:05.251Z,34.42
2022-08-26T08:24:45.357Z,35.19
2022-08-26T08:27:18.145Z,33.95
2022-08-26T08:29:48.498Z,31.82
2022-08-26T08:32:16.013Z,32.24
2022-08-26T08:37:15.087Z,33.71
2022-08-26T08:39:42.279Z,33.09
2022-08-26T08:42:43.907Z,33.33
2022-08-26T08:45:16.897Z,33.22
2022-08-26T08:47:54.595Z,33.42
2022-08-26T08:50:28.814Z,32.79
2022-08-26T08:53:13.479Z,33.28
2022-08-26T08:56:15.305Z,33.81
2022-08-26T08:58:57.465Z,33.50
2022-08-26T09:01:45.119Z,34.48
2022-08-26T09:04:39.799Z,32.96
2022-08-26T09:07:15.989Z,32.99
2022-08-26T09:10:06.645Z,32.13
2022-08-26T09:12:36.287Z,31.83
2022-08-26T09:15:06.172Z,32.33
2022-08-26T09:17:43.448Z,31.54
2022-08-26T09:20:47.880Z,32.21
2022-08-26T09:23:16.370Z,32.54
2022-08-26T09:25:56.439Z,32.15
2022-08-26T09:28:26.296Z,30.75
2022-08-26T09:31:13.329Z,30.57
2022-08-26T09:33:41.617Z,31.30
2022-08-26T09:36:13.244Z,31.62
2022-08-26T09:38:40.403Z,31.10
2022-08-26T09:41:24.979Z,31.16
2022-08-26T09:44:17.171Z,31.10
2022-08-26T09:46:58.126Z,31.49
2022-08-26T09:49:29.860Z,31.15
2022-08-26T09:52:26.746Z,30.97
2022-08-26T09:55:12.437Z,29.91
2022-08-26T09:57:51.506Z,30.92
2022-08-26T10:00:38.588Z,29.93
2022-08-26T10:03:10.869Z,30.09
2022-08-26T10:05:43.767Z,30.31
2022-08-26T10:08:23.111Z,30.93
2022-08-26T10:10:53.305Z,31.37
2022-08-26T10:13:42.361Z,30.83
2022-08-26T10:16:31.210Z,31.99
2022-08-26T10:19:08.478Z,32.57
2022-08-26T10:21:42.676Z,32.80
2022-08-26T10:24:11.634Z,32.49
2022-08-26T10:26:44.683Z,31.35
2022-08-26T10:29:34.338Z,34.66
2022-08-26T10:32:31.211Z,36.06
2022-08-26T10:34:58.377Z,36.57
2022-08-26T10:37:35.098Z,38.93
2022-08-26T10:40:23.318Z,39.43
2022-08-26T10:43:11.394Z,39.23
2022-08-26T10:45:50.536Z,38.62
2022-08-26T10:48:35.339Z,37.27
2022-08-26T10:51:04.287Z,37.06
2022-08-26T10:53:38.717Z,38.05
2022-08-26T10:56:28.554Z,38.72
2022-08-26T10:59:15.261Z,37.64
2022-08-26T11:01:50.987Z,37.14
2022-08-26T11:04:50.777Z,37.67
2022-08-26T11:07:39.379Z,37.29
2022-08-26T11:10:14.060Z,38.76
2022-08-26T11:12:42.211Z,37.85
2022-08-26T11:15:24.560Z,37.40
2022-08-26T11:17:51.854Z,36.78
2022-08-26T11:20:51.302Z,37.01
2022-08-26T11:23:22.506Z,37.35
2022-08-26T11:26:01.261Z,36.89
2022-08-26T11:28:37.041Z,36.73
2022-08-26T11:31:08.782Z,36.41
2022-08-26T11:33:54.324Z,34.22
2022-08-26T11:36:36.289Z,34.25
2022-08-26T11:39:29.151Z,33.49
2022-08-26T11:42:01.738Z,33.50
2022-08-26T11:44:49.513Z,33.39
2022-08-26T11:47:27.014Z,31.97
2022-08-26T11:50:19.268Z,31.07
2022-08-26T11:53:19.229Z,31.41
2022-08-26T11:55:47.387Z,32.06
2022-08-26T11:58:15.854Z,31.85
2022-08-26T12:00:54.779Z,31.90
2022-08-26T12:03:30.745Z,31.79
2022-08-26T12:05:58.903Z,32.85
2022-08-26T12:08:29.194Z,32.35
2022-08-26T12:11:11.117Z,31.89
2022-08-26T12:13:39.338Z,31.99
2022-08-26T12:16:07.700Z,31.85
2022-08-26T12:18:38.160Z,31.40
2022-08-26T12:21:16.295Z,31.64
2022-08-26T12:23:49.953Z,31.51
2022-08-26T12:26:30.942Z,31.32
2022-08-26T12:29:20.250Z,31.58
2022-08-26T12:32:13.314Z,32.01
2022-08-26T12:34:42.781Z,32.20
2022-08-26T12:37:12.109Z,32.47
2022-08-26T12:39:43.243Z,32.30
2022-08-26T12:42:12.965Z,32.72
2022-08-26T12:44:53.186Z,32.61
2022-08-26T12:47:44.172Z,31.97
2022-08-26T12:50:35.911Z,32.39
2022-08-26T12:53:17.709Z,32.16
2022-08-26T12:56:04.658Z,32.57
2022-08-26T12:58:36.590Z,32.83
2022-08-26T13:01:06.929Z,33.22
2022-08-26T13:03:34.069Z,33.74
2022-08-26T13:06:30.201Z,33.21
2022-08-26T13:09:06.791Z,33.59
2022-08-26T13:11:55.930Z,33.30
2022-08-26T13:14:24.799Z,33.08
2022-08-26T13:16:53.126Z,33.10
2022-08-26T13:19:23.009Z,33.38
2022-08-26T13:21:55.733Z,33.55
2022-08-26T13:24:38.780Z,33.09
2022-08-26T13:27:08.326Z,33.37
2022-08-26T13:29:35.856Z,33.57
2022-08-26T13:32:05.686Z,33.39
2022-08-26T13:34:32.897Z,33.43
2022-08-26T13:36:59.863Z,33.18
2022-08-26T13:39:27.083Z,33.43
2022-08-26T13:41:54.514Z,33.18
2022-08-26T13:44:21.891Z,33.01
2022-08-26T13:46:48.949Z,33.32
2022-08-26T13:49:16.051Z,32.76
2022-08-26T13:51:43.064Z,33.32
2022-08-26T13:54:10.092Z,33.26
2022-08-26T13:56:37.592Z,33.68
2022-08-26T13:59:05.777Z,33.57
2022-08-26T14:01:35.189Z,33.70
2022-08-26T14:04:03.171Z,33.81
2022-08-26T14:06:30.735Z,33.34
2022-08-26T14:08:58.787Z,33.24
2022-08-26T14:11:27.049Z,33.33
2022-08-26T14:13:53.973Z,32.48
2022-08-26T14:16:27.470Z,32.52
2022-08-26T14:18:54.831Z,32.98
2022-08-26T14:21:21.968Z,32.66
2022-08-26T14:23:49.053Z,32.42
2022-08-26T14:26:28.160Z,31.93
2022-08-26T14:28:57.640Z,31.53
2022-08-26T14:31:27.049Z,32.35
2022-08-26T14:33:57.570Z,32.43
2022-08-26T14:36:33.301Z,32.36
2022-08-26T14:39:04.731Z,31.92
2022-08-26T14:41:33.860Z,31.53
2022-08-26T14:44:08.044Z,32.25
2022-08-26T14:46:42.454Z,31.85
2022-08-26T14:49:10.650Z,31.68
2022-08-26T14:51:39.807Z,31.40
2022-08-26T14:54:14.882Z,31.41
2022-08-26T14:56:55.973Z,31.87
2022-08-26T14:59:26.683Z,31.29
2022-08-26T15:01:54.526Z,30.60
2022-08-26T15:04:23.315Z,30.64
2022-08-26T15:06:51.999Z,30.87
2022-08-26T15:09:19.233Z,31.22
2022-08-26T15:11:47.834Z,30.56
2022-08-26T15:14:19.923Z,30.94
2022-08-26T15:16:49.753Z,30.51
2022-08-26T15:19:17.220Z,31.45
2022-08-26T15:21:45.687Z,31.68
2022-08-26T15:24:14.802Z,31.09
2022-08-26T15:26:42.800Z,31.42
2022-08-26T15:29:10.146Z,31.11
2022-08-26T15:31:37.149Z,31.13
2022-08-26T15:34:08.542Z,30.83
2022-08-26T15:36:37.961Z,31.37
2022-08-26T15:39:06.933Z,32.23
2022-08-26T15:41:34.948Z,32.99
2022-08-26T15:44:03.520Z,32.94
2022-08-26T15:46:32.171Z,33.89
2022-08-26T15:48:59.562Z,33.62
2022-08-26T15:51:33.178Z,33.14
2022-08-26T15:54:03.259Z,32.96
2022-08-26T15:56:35.185Z,33.43
2022-08-26T15:59:03.843Z,33.75
2022-08-26T16:01:32.587Z,34.02
2022-08-26T16:04:00.185Z,34.52
2022-08-26T16:06:31.558Z,34.84
2022-08-26T16:08:58.798Z,33.79
2022-08-26T16:11:26.352Z,33.67
2022-08-26T16:13:53.752Z,33.94
2022-08-26T16:16:21.602Z,33.75
2022-08-26T16:18:49.670Z,33.49
2022-08-26T16:21:20.050Z,33.57
2022-08-26T16:23:47.668Z,33.60
2022-08-26T16:26:18.625Z,33.91
2022-08-26T16:28:46.088Z,34.21
2022-08-26T16:31:13.731Z,33.35
2022-08-26T16:33:40.844Z,33.04
2022-08-26T16:36:08.910Z,33.85
2022-08-26T16:38:37.732Z,33.84
2022-08-26T16:41:06.063Z,33.89
2022-08-26T16:43:33.659Z,33.61
2022-08-26T16:46:00.924Z,33.85
2022-08-26T16:48:28.111Z,34.01
2022-08-26T16:50:55.677Z,33.87
2022-08-26T16:53:23.299Z,34.42
2022-08-26T16:55:51.354Z,33.59
2022-08-26T16:58:21.998Z,33.72
2022-08-26T17:00:49.366Z,33.45
2022-08-26T17:03:17.079Z,34.32
2022-08-26T17:05:44.610Z,33.84
2022-08-26T17:08:12.157Z,33.79
2022-08-26T17:10:40.146Z,33.62
2022-08-26T17:13:07.162Z,33.31
2022-08-26T17:15:34.166Z,33.72
2022-08-26T17:18:01.121Z,33.64
2022-08-26T17:20:28.121Z,33.50
2022-08-26T17:22:56.311Z,33.34
2022-08-26T17:25:31.710Z,34.47
2022-08-26T17:27:59.251Z,35.88
2022-08-26T17:30:27.268Z,37.46
2022-08-26T17:32:57.059Z,39.25
2022-08-26T17:35:24.451Z,40.38
2022-08-26T17:37:51.938Z,42.11
2022-08-26T17:40:22.890Z,48.29
2022-08-26T17:42:50.423Z,55.55
2022-08-26T17:47:51.024Z,67.52
2022-08-26T17:50:18.636Z,68.51
2022-08-26T17:52:46.804Z,66.80
2022-08-26T17:55:15.755Z,66.65
2022-08-26T17:57:44.476Z,67.79
2022-08-26T18:00:26.503Z,66.44
2022-08-26T18:02:55.305Z,66.76
2022-08-26T18:05:23.231Z,67.21
2022-08-26T18:07:51.599Z,67.31
2022-08-26T18:10:20.610Z,67.99
2022-08-26T18:12:48.377Z,68.65
2022-08-26T18:15:17.599Z,68.40
2022-08-26T18:17:45.031Z,68.79
2022-08-26T18:20:16.884Z,68.90
2022-08-26T18:22:44.847Z,68.26
2022-08-26T18:25:12.800Z,68.55
2022-08-26T18:27:40.428Z,67.21
2022-08-26T18:30:16.278Z,67.86
2022-08-26T18:32:43.903Z,68.23
2022-08-26T18:35:12.072Z,69.96
2022-08-26T18:37:39.432Z,71.34
2022-08-26T18:40:10.091Z,71.82
2022-08-26T18:42:37.547Z,69.85
2022-08-26T18:45:07.228Z,68.93
2022-08-26T18:47:34.390Z,69.28
2022-08-26T18:50:03.846Z,70.11
2022-08-26T18:52:31.830Z,68.93
2022-08-26T18:54:59.606Z,68.04
2022-08-26T18:57:26.515Z,66.24
2022-08-26T18:59:53.431Z,66.66
2022-08-26T19:02:20.506Z,66.84
2022-08-26T19:04:47.507Z,68.29
2022-08-26T19:07:14.926Z,68.99
2022-08-26T19:09:41.856Z,69.71
2022-08-26T19:12:08.953Z,70.84
2022-08-26T19:14:36.801Z,72.47
2022-08-26T19:17:04.435Z,72.10
2022-08-26T19:19:32.141Z,69.24
2022-08-26T19:21:59.233Z,69.99
2022-08-26T19:24:27.454Z,69.85
2022-08-26T19:26:58.383Z,69.14
2022-08-26T19:29:28.622Z,67.01
2022-08-26T19:31:55.930Z,66.96
2022-08-26T19:34:22.900Z,68.30
2022-08-26T19:36:52.114Z,70.80
2022-08-26T19:39:19.999Z,71.79
2022-08-26T19:41:47.324Z,71.37
2022-08-26T19:44:36.011Z,72.30
2022-08-26T19:47:03.894Z,72.96
2022-08-26T19:49:31.639Z,74.13
2022-08-26T19:51:58.789Z,72.52
2022-08-26T19:54:25.802Z,71.44
2022-08-26T19:56:52.919Z,70.51
2022-08-26T19:59:20.098Z,68.87
2022-08-26T20:01:47.383Z,69.36
2022-08-26T20:04:27.941Z,71.75
2022-08-26T20:06:57.646Z,71.92
2022-08-26T20:09:26.195Z,70.97
2022-08-26T20:11:54.071Z,70.59
2022-08-26T20:14:24.872Z,69.95
2022-08-26T20:16:51.864Z,70.80
2022-08-26T20:19:37.778Z,69.50
2022-08-26T20:22:05.439Z,71.19
2022-08-26T20:24:32.755Z,70.64
2022-08-26T20:27:03.269Z,70.58
2022-08-26T20:29:34.938Z,69.87
2022-08-26T20:32:02.765Z,71.15
2022-08-26T20:34:30.222Z,71.86
2022-08-26T20:36:57.506Z,70.89
2022-08-26T20:39:24.417Z,71.70
2022-08-26T20:41:51.456Z,72.30
2022-08-26T20:44:18.417Z,70.47
2022-08-26T20:46:45.668Z,69.13
2022-08-26T20:49:13.479Z,70.19
2022-08-26T20:51:43.214Z,71.73
2022-08-26T20:54:12.423Z,71.54
2022-08-26T20:56:40.213Z,70.21
2022-08-26T20:59:08.243Z,71.03
2022-08-26T21:01:37.259Z,70.41
2022-08-26T21:04:12.869Z,73.71
2022-08-26T21:06:42.245Z,73.99
2022-08-26T21:09:14.756Z,72.10
2022-08-26T21:11:44.709Z,71.86
2022-08-26T21:14:16.811Z,73.99
2022-08-26T21:16:46.120Z,74.14
2022-08-26T21:19:14.855Z,72.85
2022-08-26T21:21:42.637Z,73.21
2022-08-26T21:24:09.660Z,73.10
2022-08-26T21:26:37.179Z,73.12
2022-08-26T21:29:04.819Z,73.76
2022-08-26T21:31:32.308Z,73.58
2022-08-26T21:33:59.844Z,76.17
2022-08-26T21:36:27.175Z,75.19
2022-08-26T21:38:58.351Z,74.48
2022-08-26T21:41:26.452Z,74.64
2022-08-26T21:43:58.069Z,74.15
2022-08-26T21:46:27.140Z,75.00
2022-08-26T21:48:58.029Z,75.39
2022-08-26T21:51:30.501Z,75.17
2022-08-26T21:53:59.094Z,73.17
2022-08-26T21:56:28.662Z,74.89
2022-08-26T21:58:56.641Z,71.59
2022-08-26T22:01:26.424Z,71.57
2022-08-26T22:03:54.568Z,72.43
2022-08-26T22:06:24.454Z,73.18
2022-08-26T22:08:52.608Z,74.71
2022-08-26T22:11:20.416Z,74.55
2022-08-26T22:13:48.629Z,74.21
2022-08-26T22:16:15.767Z,72.05
2022-08-26T22:18:45.119Z,71.80
2022-08-26T22:21:15.363Z,72.84
2022-08-26T22:23:42.511Z,75.41
2022-08-26T22:26:10.908Z,74.41
2022-08-26T22:28:39.390Z,72.96
2022-08-26T22:31:11.343Z,72.73
2022-08-26T22:33:42.901Z,72.83
2022-08-26T22:36:27.206Z,73.87
2022-08-26T22:38:56.135Z,75.45
2022-08-26T22:41:23.358Z,75.92
2022-08-26T22:43:50.286Z,77.37
2022-08-26T22:46:23.269Z,77.55
2022-08-26T22:48:53.928Z,77.15
2022-08-26T22:51:23.172Z,76.26
2022-08-26T22:53:50.130Z,77.00
2022-08-26T22:56:19.148Z,79.08
2022-08-26T22:58:46.141Z,79.77
2022-08-26T23:01:13.602Z,80.38
2022-08-26T23:03:40.721Z,78.20
2022-08-26T23:06:10.514Z,77.09
2022-08-26T23:08:38.623Z,76.40
2022-08-26T23:11:11.120Z,77.15
2022-08-26T23:13:39.195Z,77.08
2022-08-26T23:16:09.860Z,76.52
2022-08-26T23:18:37.381Z,75.02
2022-08-26T23:21:04.635Z,75.73
2022-08-26T23:23:31.820Z,75.69
2022-08-26T23:25:58.986Z,75.44
2022-08-26T23:28:26.529Z,75.39
2022-08-26T23:30:54.049Z,75.61
2022-08-26T23:33:21.590Z,74.26
2022-08-26T23:35:48.490Z,73.14
2022-08-26T23:38:16.333Z,72.18
2022-08-26T23:40:43.503Z,71.46
2022-08-26T23:43:16.497Z,72.83
2022-08-26T23:45:43.847Z,71.43
2022-08-26T23:48:11.116Z,71.54
2022-08-26T23:50:56.542Z,72.39
2022-08-26T23:53:23.510Z,72.46
2022-08-26T23:55:52.323Z,72.40
2022-08-26T23:58:20.996Z,72.14
